• Join FlightAware (Why Join?)
  • Login
  • US Flag 
10:54AM EDT


 

Airport Tracker/Info


-or-


 

Live Flight TrackerFlight Track Log ✈ KAP3 ✈ 03-Jun-2013 ✈ KBOS - KACK

Flight Track Log - Related Links

Times and Time Zones

All times are in EDT time to prevent confusion due to time zone crossing. See the KAP3 flight status page for this flight to view local times or setup timezone preferences in your user account.

Time Position Orientation Groundspeed Altitude Reporting Facility
EDT Latitude Longitude Course Direction KTS MPH feet Rate Location/Type
05:32PM 42.3667 -71.0167 180° South 85 98 300  Level KA90
05:32PM 42.3500 -71.0167 180° South 92 106 500 660 Climbing KA90
05:33PM 42.3333 -71.0333 216° Southwest 92 106 1,200 600 Climbing KA90
05:34PM 42.3167 -71.0667 236° Southwest 95 109 1,800 480 Climbing KA90
05:35PM 42.2833 -71.0833 200° South 118 136 2,200 540 Climbing KA90
05:36PM 42.2667 -71.0500 124° Southeast 123 142 3,000 660 Climbing KA90
05:37PM 42.2333 -71.0333 160° South 119 137 3,600 540 Climbing KA90
05:38PM 42.2167 -71.0000 124° Southeast 144 166 4,100 420 Climbing KA90
05:39PM 42.2000 -70.9333 109° East 156 180 4,500 360 Climbing KA90
05:40PM 42.1833 -70.8833 114° Southeast 162 186 4,900 180 Climbing KA90
05:41PM 42.1833 -70.8167 90° East 187 215 4,900  Level KA90
05:42PM 42.1667 -70.7500 109° East 191 220 4,900  Level KA90
05:44PM 42.1614 -70.6907 97° East  Level FlightAware Approximate
05:51PM 41.8994 -70.5068 114° Southeast  Level Estimated
05:52PM 41.9128 -70.4530 71° East  Level FlightAware Approximate
05:53PM 41.9263 -70.3992 71° East  Level FlightAware Approximate
05:54PM 41.9396 -70.3455 71° East  Level FlightAware Approximate
05:55PM 41.9530 -70.2916 72° East  Level FlightAware Approximate
05:56PM 41.9120 -70.2779 180° South  Level Estimated
05:57PM 41.8756 -70.2493 150° Southeast  Level FlightAware Approximate
05:58PM 41.8392 -70.2206 150° Southeast  Level FlightAware Approximate
05:59PM 41.8028 -70.1920 150° Southeast  Level FlightAware Approximate
06:00PM 41.7664 -70.1634 150° Southeast  Level FlightAware Approximate
06:01PM 41.7299 -70.1349 150° Southeast  Level FlightAware Approximate
06:02PM 41.6935 -70.1064 150° Southeast  Level FlightAware Approximate
06:03PM 41.6571 -70.0779 150° Southeast  Level FlightAware Approximate
06:04PM 41.6206 -70.0494 150° Southeast  Level FlightAware Approximate
06:05PM 41.5842 -70.0210 150° Southeast  Level FlightAware Approximate
06:06PM 41.5877 -70.0358 189° South  Level FlightAware Approximate
06:07PM 41.5460 -70.0442 189° South  Level FlightAware Approximate
06:08PM 41.5041 -70.0500 180° South  Level FlightAware Approximate
06:09PM 41.4619 -70.0500 180° South  Level FlightAware Approximate
06:10PM 41.4197 -70.0500 180° South  Level FlightAware Approximate
06:11PM 41.3775 -70.0500 180° South  Level FlightAware Approximate
06:12PM 41.3353 -70.0500 180° South  Level FlightAware Approximate
06:13PM 41.2931 -70.0500 180° South  Level FlightAware Approximate
06:14PM 41.2509 -70.0500 180° South  Level FlightAware Approximate
06:15PM 41.2500 -70.0500 180° South  Level FlightAware Approximate
06:16PM 41.2531 -70.0603 180° South  Level Estimated
06:17PM 41.2531 -70.0603 180° South  Level Estimated
06:18PM 41.2531 -70.0603 180° South  Level Estimated
06:19PM 41.2531 -70.0603 180° South  Level Estimated
06:20PM 41.2531 -70.0603 180° South  Level Estimated
06:21PM 41.2531 -70.0603 180° South  Level Estimated